sensor_id;sensor_type;location;lat;lon;timestamp;P1;durP1;ratioP1;P2;durP2;ratioP2
47812;SDS011;34221;45.296;9.516;2023-12-20T00:00:03;26.00;;;20.80;;
47812;SDS011;34221;45.296;9.516;2023-12-20T00:00:21;26.83;;;22.02;;
47812;SDS011;34221;45.296;9.516;2023-12-20T00:00:36;25.58;;;21.30;;
47812;SDS011;34221;45.296;9.516;2023-12-20T00:00:54;25.55;;;20.90;;
47812;SDS011;34221;45.296;9.516;2023-12-20T00:01:09;25.35;;;20.45;;
47812;SDS011;34221;45.296;9.516;2023-12-20T00:01:24;25.60;;;20.67;;
47812;SDS011;34221;45.296;9.516;2023-12-20T00:01:39;25.60;;;21.20;;
47812;SDS011;34221;45.296;9.516;2023-12-20T00:01:54;26.30;;;21.17;;
47812;SDS011;34221;45.296;9.516;2023-12-20T00:02:09;29.13;;;22.23;;
47812;SDS011;34221;45.296;9.516;2023-12-20T00:02:24;29.75;;;22.08;;
47812;SDS011;34221;45.296;9.516;2023-12-20T00:02:59;29.13;;;22.02;;
47812;SDS011;34221;45.296;9.516;2023-12-20T00:03:14;29.10;;;22.52;;
47812;SDS011;34221;45.296;9.516;2023-12-20T00:03:28;27.02;;;21.63;;
47812;SDS011;34221;45.296;9.516;2023-12-20T00:03:43;27.60;;;22.08;;
47812;SDS011;34221;45.296;9.516;2023-12-20T00:03:58;31.27;;;23.75;;
47812;SDS011;34221;45.296;9.516;2023-12-20T00:04:13;31.85;;;24.52;;
47812;SDS011;34221;45.296;9.516;2023-12-20T00:04:28;31.00;;;24.27;;
47812;SDS011;34221;45.296;9.516;2023-12-20T00:04:43;31.30;;;24.70;;
47812;SDS011;34221;45.296;9.516;2023-12-20T00:04:58;30.95;;;25.17;;
47812;SDS011;34221;45.296;9.516;2023-12-20T00:05:13;30.83;;;25.10;;
47812;SDS011;34221;45.296;9.516;2023-12-20T00:05:28;31.33;;;25.88;;
47812;SDS011;34221;45.296;9.516;2023-12-20T00:05:43;32.03;;;26.15;;
47812;SDS011;34221;45.296;9.516;2023-12-20T00:05:58;31.83;;;25.52;;
47812;SDS011;34221;45.296;9.516;2023-12-20T00:06:13;33.23;;;26.00;;
47812;SDS011;34221;45.296;9.516;2023-12-20T00:06:29;33.20;;;26.35;;
47812;SDS011;34221;45.296;9.516;2023-12-20T00:06:45;32.05;;;25.85;;
47812;SDS011;34221;45.296;9.516;2023-12-20T00:06:59;32.95;;;25.65;;
47812;SDS011;34221;45.296;9.516;2023-12-20T00:07:15;33.55;;;26.52;;
47812;SDS011;34221;45.296;9.516;2023-12-20T00:07:30;34.10;;;26.92;;
47812;SDS011;34221;45.296;9.516;2023-12-20T00:07:45;34.88;;;26.58;;
47812;SDS011;34221;45.296;9.516;2023-12-20T00:08:00;33.72;;;26.90;;
47812;SDS011;34221;45.296;9.516;2023-12-20T00:08:15;31.90;;;26.60;;
47812;SDS011;34221;45.296;9.516;2023-12-20T00:08:31;32.33;;;26.35;;
47812;SDS011;34221;45.296;9.516;2023-12-20T00:08:46;32.35;;;26.10;;
47812;SDS011;34221;45.296;9.516;2023-12-20T00:09:00;32.97;;;25.90;;
47812;SDS011;34221;45.296;9.516;2023-12-20T00:09:15;33.63;;;26.33;;
47812;SDS011;34221;45.296;9.516;2023-12-20T00:09:31;34.53;;;26.95;;
47812;SDS011;34221;45.296;9.516;2023-12-20T00:09:45;36.05;;;27.23;;
47812;SDS011;34221;45.296;9.516;2023-12-20T00:10:00;36.83;;;27.25;;
47812;SDS011;34221;45.296;9.516;2023-12-20T00:10:15;37.50;;;27.73;;
47812;SDS011;34221;45.296;9.516;2023-12-20T00:10:30;37.05;;;27.60;;
47812;SDS011;34221;45.296;9.516;2023-12-20T00:10:45;35.53;;;26.73;;
47812;SDS011;34221;45.296;9.516;2023-12-20T00:11:00;34.25;;;26.63;;
47812;SDS011;34221;45.296;9.516;2023-12-20T00:11:15;33.58;;;26.55;;
47812;SDS011;34221;45.296;9.516;2023-12-20T00:11:30;32.95;;;26.25;;
47812;SDS011;34221;45.296;9.516;2023-12-20T00:11:45;31.40;;;25.60;;
47812;SDS011;34221;45.296;9.516;2023-12-20T00:12:00;31.20;;;24.95;;
47812;SDS011;34221;45.296;9.516;2023-12-20T00:12:15;31.92;;;26.13;;
47812;SDS011;34221;45.296;9.516;2023-12-20T00:12:30;30.33;;;25.45;;
47812;SDS011;34221;45.296;9.516;2023-12-20T00:12:45;30.70;;;24.65;;
47812;SDS011;34221;45.296;9.516;2023-12-20T00:13:00;34.05;;;25.75;;
47812;SDS011;34221;45.296;9.516;2023-12-20T00:13:15;32.92;;;25.75;;
47812;SDS011;34221;45.296;9.516;2023-12-20T00:13:30;29.55;;;24.77;;
47812;SDS011;34221;45.296;9.516;2023-12-20T00:13:45;30.38;;;24.38;;
47812;SDS011;34221;45.296;9.516;2023-12-20T00:14:00;31.33;;;24.42;;
47812;SDS011;34221;45.296;9.516;2023-12-20T00:14:15;32.42;;;25.30;;
47812;SDS011;34221;45.296;9.516;2023-12-20T00:14:29;35.50;;;27.42;;
47812;SDS011;34221;45.296;9.516;2023-12-20T00:14:44;37.40;;;28.40;;
47812;SDS011;34221;45.296;9.516;2023-12-20T00:14:59;37.55;;;29.58;;
47812;SDS011;34221;45.296;9.516;2023-12-20T00:15:14;38.55;;;30.45;;
47812;SDS011;34221;45.296;9.516;2023-12-20T00:15:29;38.60;;;29.75;;
47812;SDS011;34221;45.296;9.516;2023-12-20T00:15:44;38.40;;;29.42;;
47812;SDS011;34221;45.296;9.516;2023-12-20T00:15:59;37.08;;;28.83;;
47812;SDS011;34221;45.296;9.516;2023-12-20T00:16:14;35.70;;;28.85;;
47812;SDS011;34221;45.296;9.516;2023-12-20T00:16:29;38.90;;;29.88;;
47812;SDS011;34221;45.296;9.516;2023-12-20T00:16:46;41.20;;;30.95;;
47812;SDS011;34221;45.296;9.516;2023-12-20T00:17:01;40.63;;;30.85;;
47812;SDS011;34221;45.296;9.516;2023-12-20T00:17:16;42.15;;;31.33;;
47812;SDS011;34221;45.296;9.516;2023-12-20T00:17:31;39.60;;;29.98;;
47812;SDS011;34221;45.296;9.516;2023-12-20T00:17:46;39.00;;;28.80;;
47812;SDS011;34221;45.296;9.516;2023-12-20T00:18:00;41.63;;;29.23;;
47812;SDS011;34221;45.296;9.516;2023-12-20T00:18:15;38.05;;;27.67;;
47812;SDS011;34221;45.296;9.516;2023-12-20T00:18:30;36.78;;;27.90;;
47812;SDS011;34221;45.296;9.516;2023-12-20T00:18:45;38.67;;;29.50;;
47812;SDS011;34221;45.296;9.516;2023-12-20T00:19:00;38.42;;;29.30;;
47812;SDS011;34221;45.296;9.516;2023-12-20T00:19:15;38.03;;;28.77;;
47812;SDS011;34221;45.296;9.516;2023-12-20T00:19:31;38.97;;;28.95;;
47812;SDS011;34221;45.296;9.516;2023-12-20T00:19:46;37.28;;;28.05;;
47812;SDS011;34221;45.296;9.516;2023-12-20T00:20:01;37.67;;;29.17;;
47812;SDS011;34221;45.296;9.516;2023-12-20T00:20:16;41.92;;;30.83;;
47812;SDS011;34221;45.296;9.516;2023-12-20T00:20:31;42.03;;;31.27;;
47812;SDS011;34221;45.296;9.516;2023-12-20T00:20:45;43.28;;;32.83;;
47812;SDS011;34221;45.296;9.516;2023-12-20T00:21:00;43.88;;;33.17;;
47812;SDS011;34221;45.296;9.516;2023-12-20T00:21:15;42.20;;;32.13;;
47812;SDS011;34221;45.296;9.516;2023-12-20T00:21:30;45.65;;;33.03;;
47812;SDS011;34221;45.296;9.516;2023-12-20T00:21:45;46.40;;;33.22;;
47812;SDS011;34221;45.296;9.516;2023-12-20T00:22:00;44.70;;;32.80;;
47812;SDS011;34221;45.296;9.516;2023-12-20T00:22:15;43.45;;;32.25;;
47812;SDS011;34221;45.296;9.516;2023-12-20T00:22:30;43.63;;;32.03;;
47812;SDS011;34221;45.296;9.516;2023-12-20T00:22:45;43.75;;;32.20;;
47812;SDS011;34221;45.296;9.516;2023-12-20T00:23:00;44.03;;;32.45;;
47812;SDS011;34221;45.296;9.516;2023-12-20T00:23:16;41.38;;;31.42;;
47812;SDS011;34221;45.296;9.516;2023-12-20T00:23:31;39.33;;;30.65;;
47812;SDS011;34221;45.296;9.516;2023-12-20T00:23:46;39.72;;;30.17;;
47812;SDS011;34221;45.296;9.516;2023-12-20T00:24:01;37.40;;;29.13;;
47812;SDS011;34221;45.296;9.516;2023-12-20T00:24:16;37.03;;;28.63;;
47812;SDS011;34221;45.296;9.516;2023-12-20T00:24:32;37.55;;;27.70;;
47812;SDS011;34221;45.296;9.516;2023-12-20T00:24:46;36.53;;;26.43;;
47812;SDS011;34221;45.296;9.516;2023-12-20T00:25:01;35.43;;;26.37;;
47812;SDS011;34221;45.296;9.516;2023-12-20T00:25:16;34.08;;;26.42;;
47812;SDS011;34221;45.296;9.516;2023-12-20T00:25:32;33.30;;;25.83;;
47812;SDS011;34221;45.296;9.516;2023-12-20T00:25:46;33.53;;;25.77;;
47812;SDS011;34221;45.296;9.516;2023-12-20T00:26:01;32.10;;;25.35;;
47812;SDS011;34221;45.296;9.516;2023-12-20T00:26:17;31.15;;;25.38;;
47812;SDS011;34221;45.296;9.516;2023-12-20T00:26:32;31.75;;;25.60;;
47812;SDS011;34221;45.296;9.516;2023-12-20T00:26:46;33.55;;;25.60;;
47812;SDS011;34221;45.296;9.516;2023-12-20T00:27:01;33.63;;;25.73;;
47812;SDS011;34221;45.296;9.516;2023-12-20T00:27:16;31.27;;;24.87;;
47812;SDS011;34221;45.296;9.516;2023-12-20T00:27:31;29.70;;;23.80;;
47812;SDS011;34221;45.296;9.516;2023-12-20T00:27:46;29.37;;;23.80;;
47812;SDS011;34221;45.296;9.516;2023-12-20T00:28:01;29.58;;;23.80;;
47812;SDS011;34221;45.296;9.516;2023-12-20T00:28:17;28.85;;;23.38;;
47812;SDS011;34221;45.296;9.516;2023-12-20T00:28:32;29.13;;;23.67;;
47812;SDS011;34221;45.296;9.516;2023-12-20T00:28:49;29.67;;;23.63;;
47812;SDS011;34221;45.296;9.516;2023-12-20T00:29:04;28.77;;;23.02;;
47812;SDS011;34221;45.296;9.516;2023-12-20T00:29:19;28.65;;;23.58;;
47812;SDS011;34221;45.296;9.516;2023-12-20T00:29:34;28.63;;;23.70;;
47812;SDS011;34221;45.296;9.516;2023-12-20T00:29:49;29.27;;;23.63;;
47812;SDS011;34221;45.296;9.516;2023-12-20T00:30:04;33.60;;;24.60;;
47812;SDS011;34221;45.296;9.516;2023-12-20T00:30:20;35.35;;;25.85;;
47812;SDS011;34221;45.296;9.516;2023-12-20T00:30:35;34.92;;;27.10;;
47812;SDS011;34221;45.296;9.516;2023-12-20T00:30:50;34.55;;;26.95;;
47812;SDS011;34221;45.296;9.516;2023-12-20T00:31:05;33.10;;;26.80;;
47812;SDS011;34221;45.296;9.516;2023-12-20T00:31:20;32.60;;;26.48;;
47812;SDS011;34221;45.296;9.516;2023-12-20T00:31:35;34.55;;;27.85;;
47812;SDS011;34221;45.296;9.516;2023-12-20T00:31:50;34.28;;;27.65;;
47812;SDS011;34221;45.296;9.516;2023-12-20T00:32:05;31.40;;;25.83;;
47812;SDS011;34221;45.296;9.516;2023-12-20T00:32:20;33.47;;;26.67;;
47812;SDS011;34221;45.296;9.516;2023-12-20T00:32:35;35.08;;;26.83;;
47812;SDS011;34221;45.296;9.516;2023-12-20T00:32:50;33.42;;;26.42;;
47812;SDS011;34221;45.296;9.516;2023-12-20T00:33:05;33.50;;;26.70;;
47812;SDS011;34221;45.296;9.516;2023-12-20T00:33:20;35.92;;;27.38;;
47812;SDS011;34221;45.296;9.516;2023-12-20T00:33:35;36.10;;;27.33;;
47812;SDS011;34221;45.296;9.516;2023-12-20T00:33:50;35.10;;;26.65;;
47812;SDS011;34221;45.296;9.516;2023-12-20T00:34:05;33.90;;;26.70;;
47812;SDS011;34221;45.296;9.516;2023-12-20T00:34:20;33.95;;;26.92;;
47812;SDS011;34221;45.296;9.516;2023-12-20T00:34:35;33.25;;;25.90;;
47812;SDS011;34221;45.296;9.516;2023-12-20T00:34:50;31.45;;;24.75;;
47812;SDS011;34221;45.296;9.516;2023-12-20T00:35:05;30.17;;;24.60;;
47812;SDS011;34221;45.296;9.516;2023-12-20T00:35:20;29.42;;;24.50;;
47812;SDS011;34221;45.296;9.516;2023-12-20T00:35:35;33.22;;;25.45;;
47812;SDS011;34221;45.296;9.516;2023-12-20T00:35:50;33.20;;;25.80;;
47812;SDS011;34221;45.296;9.516;2023-12-20T00:36:05;32.28;;;26.00;;
47812;SDS011;34221;45.296;9.516;2023-12-20T00:36:20;33.25;;;26.17;;
47812;SDS011;34221;45.296;9.516;2023-12-20T00:36:35;32.00;;;25.25;;
47812;SDS011;34221;45.296;9.516;2023-12-20T00:36:51;32.10;;;24.40;;
47812;SDS011;34221;45.296;9.516;2023-12-20T00:37:06;33.35;;;24.92;;
47812;SDS011;34221;45.296;9.516;2023-12-20T00:37:21;34.15;;;25.63;;
47812;SDS011;34221;45.296;9.516;2023-12-20T00:37:36;34.20;;;26.20;;
47812;SDS011;34221;45.296;9.516;2023-12-20T00:37:51;35.80;;;26.48;;
47812;SDS011;34221;45.296;9.516;2023-12-20T00:38:05;37.38;;;27.02;;
47812;SDS011;34221;45.296;9.516;2023-12-20T00:38:21;35.50;;;26.88;;
47812;SDS011;34221;45.296;9.516;2023-12-20T00:38:37;34.38;;;25.45;;
47812;SDS011;34221;45.296;9.516;2023-12-20T00:38:52;33.25;;;25.17;;
47812;SDS011;34221;45.296;9.516;2023-12-20T00:39:07;33.17;;;25.80;;
47812;SDS011;34221;45.296;9.516;2023-12-20T00:39:22;33.60;;;26.23;;
47812;SDS011;34221;45.296;9.516;2023-12-20T00:39:36;32.42;;;26.23;;
47812;SDS011;34221;45.296;9.516;2023-12-20T00:39:51;31.08;;;25.20;;
47812;SDS011;34221;45.296;9.516;2023-12-20T00:40:06;30.30;;;23.83;;
47812;SDS011;34221;45.296;9.516;2023-12-20T00:40:22;33.78;;;24.58;;
47812;SDS011;34221;45.296;9.516;2023-12-20T00:40:37;35.10;;;26.05;;
47812;SDS011;34221;45.296;9.516;2023-12-20T00:40:52;31.55;;;25.58;;
47812;SDS011;34221;45.296;9.516;2023-12-20T00:41:07;31.25;;;25.13;;
47812;SDS011;34221;45.296;9.516;2023-12-20T00:41:22;29.70;;;23.90;;
47812;SDS011;34221;45.296;9.516;2023-12-20T00:41:36;30.92;;;24.08;;
47812;SDS011;34221;45.296;9.516;2023-12-20T00:41:51;31.90;;;24.55;;
47812;SDS011;34221;45.296;9.516;2023-12-20T00:42:06;30.55;;;24.60;;
47812;SDS011;34221;45.296;9.516;2023-12-20T00:42:21;31.40;;;24.48;;
47812;SDS011;34221;45.296;9.516;2023-12-20T00:42:36;30.45;;;23.75;;
47812;SDS011;34221;45.296;9.516;2023-12-20T00:42:51;28.90;;;23.35;;
47812;SDS011;34221;45.296;9.516;2023-12-20T00:43:06;29.20;;;23.13;;
47812;SDS011;34221;45.296;9.516;2023-12-20T00:43:21;29.17;;;23.30;;
47812;SDS011;34221;45.296;9.516;2023-12-20T00:43:36;33.42;;;25.33;;
47812;SDS011;34221;45.296;9.516;2023-12-20T00:43:51;35.30;;;25.48;;
47812;SDS011;34221;45.296;9.516;2023-12-20T00:44:05;32.30;;;23.52;;
47812;SDS011;34221;45.296;9.516;2023-12-20T00:44:20;33.15;;;24.70;;
47812;SDS011;34221;45.296;9.516;2023-12-20T00:44:35;32.60;;;25.10;;
47812;SDS011;34221;45.296;9.516;2023-12-20T00:44:50;32.60;;;25.52;;
47812;SDS011;34221;45.296;9.516;2023-12-20T00:45:05;32.78;;;25.23;;
47812;SDS011;34221;45.296;9.516;2023-12-20T00:45:21;31.00;;;23.67;;
47812;SDS011;34221;45.296;9.516;2023-12-20T00:45:35;31.02;;;23.92;;
47812;SDS011;34221;45.296;9.516;2023-12-20T00:45:51;30.30;;;23.48;;
47812;SDS011;34221;45.296;9.516;2023-12-20T00:46:06;29.73;;;23.17;;
47812;SDS011;34221;45.296;9.516;2023-12-20T00:46:21;28.58;;;23.13;;
47812;SDS011;34221;45.296;9.516;2023-12-20T00:46:35;27.77;;;22.25;;
47812;SDS011;34221;45.296;9.516;2023-12-20T00:46:51;28.27;;;21.75;;
47812;SDS011;34221;45.296;9.516;2023-12-20T00:47:06;27.15;;;21.98;;
47812;SDS011;34221;45.296;9.516;2023-12-20T00:47:21;28.94;;;23.24;;
47812;SDS011;34221;45.296;9.516;2023-12-20T00:47:36;30.10;;;23.17;;
47812;SDS011;34221;45.296;9.516;2023-12-20T00:47:51;29.52;;;22.80;;
47812;SDS011;34221;45.296;9.516;2023-12-20T00:48:06;28.85;;;23.05;;
47812;SDS011;34221;45.296;9.516;2023-12-20T00:48:21;28.13;;;23.20;;
47812;SDS011;34221;45.296;9.516;2023-12-20T00:48:36;28.38;;;22.75;;
47812;SDS011;34221;45.296;9.516;2023-12-20T00:48:51;28.40;;;22.23;;
47812;SDS011;34221;45.296;9.516;2023-12-20T00:49:06;29.10;;;23.25;;
47812;SDS011;34221;45.296;9.516;2023-12-20T00:49:21;28.80;;;23.42;;
47812;SDS011;34221;45.296;9.516;2023-12-20T00:49:36;28.83;;;22.40;;
47812;SDS011;34221;45.296;9.516;2023-12-20T00:49:51;30.80;;;23.50;;
47812;SDS011;34221;45.296;9.516;2023-12-20T00:50:06;30.90;;;23.95;;
47812;SDS011;34221;45.296;9.516;2023-12-20T00:50:22;29.55;;;23.70;;
47812;SDS011;34221;45.296;9.516;2023-12-20T00:50:37;30.17;;;24.08;;
47812;SDS011;34221;45.296;9.516;2023-12-20T00:50:52;29.83;;;23.17;;
47812;SDS011;34221;45.296;9.516;2023-12-20T00:51:07;29.35;;;22.67;;
47812;SDS011;34221;45.296;9.516;2023-12-20T00:51:22;29.58;;;23.80;;
47812;SDS011;34221;45.296;9.516;2023-12-20T00:51:37;28.73;;;23.70;;
47812;SDS011;34221;45.296;9.516;2023-12-20T00:51:52;29.95;;;23.52;;
47812;SDS011;34221;45.296;9.516;2023-12-20T00:52:07;33.50;;;24.90;;
47812;SDS011;34221;45.296;9.516;2023-12-20T00:52:22;33.35;;;24.95;;
47812;SDS011;34221;45.296;9.516;2023-12-20T00:52:37;30.45;;;23.58;;
47812;SDS011;34221;45.296;9.516;2023-12-20T00:52:52;30.25;;;23.52;;
47812;SDS011;34221;45.296;9.516;2023-12-20T00:53:09;31.98;;;24.98;;
47812;SDS011;34221;45.296;9.516;2023-12-20T00:53:23;32.28;;;24.90;;
47812;SDS011;34221;45.296;9.516;2023-12-20T00:53:38;31.55;;;24.25;;
47812;SDS011;34221;45.296;9.516;2023-12-20T00:53:53;30.02;;;23.65;;
47812;SDS011;34221;45.296;9.516;2023-12-20T00:54:09;28.70;;;23.33;;
47812;SDS011;34221;45.296;9.516;2023-12-20T00:54:24;29.95;;;23.75;;
47812;SDS011;34221;45.296;9.516;2023-12-20T00:54:39;32.92;;;25.00;;
47812;SDS011;34221;45.296;9.516;2023-12-20T00:54:53;33.97;;;26.10;;
47812;SDS011;34221;45.296;9.516;2023-12-20T00:55:08;31.27;;;25.10;;
47812;SDS011;34221;45.296;9.516;2023-12-20T00:55:23;29.75;;;24.50;;
47812;SDS011;34221;45.296;9.516;2023-12-20T00:55:38;30.15;;;24.70;;
47812;SDS011;34221;45.296;9.516;2023-12-20T00:55:53;30.33;;;24.67;;
47812;SDS011;34221;45.296;9.516;2023-12-20T00:56:08;32.03;;;24.88;;
47812;SDS011;34221;45.296;9.516;2023-12-20T00:56:23;31.15;;;24.48;;
47812;SDS011;34221;45.296;9.516;2023-12-20T00:56:38;29.65;;;24.10;;
47812;SDS011;34221;45.296;9.516;2023-12-20T00:56:53;29.33;;;23.50;;
47812;SDS011;34221;45.296;9.516;2023-12-20T00:57:08;28.63;;;22.80;;
47812;SDS011;34221;45.296;9.516;2023-12-20T00:57:22;29.13;;;23.15;;
47812;SDS011;34221;45.296;9.516;2023-12-20T00:57:37;30.20;;;23.50;;
47812;SDS011;34221;45.296;9.516;2023-12-20T00:57:52;30.67;;;24.40;;
47812;SDS011;34221;45.296;9.516;2023-12-20T00:58:08;29.00;;;23.95;;
47812;SDS011;34221;45.296;9.516;2023-12-20T00:58:23;29.58;;;23.33;;
47812;SDS011;34221;45.296;9.516;2023-12-20T00:58:38;30.60;;;23.50;;
47812;SDS011;34221;45.296;9.516;2023-12-20T00:58:52;29.92;;;23.25;;
47812;SDS011;34221;45.296;9.516;2023-12-20T00:59:07;31.67;;;24.52;;
47812;SDS011;34221;45.296;9.516;2023-12-20T00:59:22;30.08;;;23.60;;
47812;SDS011;34221;45.296;9.516;2023-12-20T00:59:37;28.55;;;23.00;;
47812;SDS011;34221;45.296;9.516;2023-12-20T00:59:52;29.63;;;23.70;;
47812;SDS011;34221;45.296;9.516;2023-12-20T01:00:07;29.50;;;23.55;;
47812;SDS011;34221;45.296;9.516;2023-12-20T01:00:27;29.02;;;23.67;;
47812;SDS011;34221;45.296;9.516;2023-12-20T01:00:42;28.50;;;23.00;;
47812;SDS011;34221;45.296;9.516;2023-12-20T01:00:58;28.48;;;22.20;;
47812;SDS011;34221;45.296;9.516;2023-12-20T01:01:13;29.15;;;22.40;;
47812;SDS011;34221;45.296;9.516;2023-12-20T01:01:28;28.75;;;23.17;;
47812;SDS011;34221;45.296;9.516;2023-12-20T01:01:42;27.80;;;22.77;;
47812;SDS011;34221;45.296;9.516;2023-12-20T01:01:57;27.35;;;22.65;;
47812;SDS011;34221;45.296;9.516;2023-12-20T01:02:12;30.30;;;23.38;;
47812;SDS011;34221;45.296;9.516;2023-12-20T01:02:27;30.83;;;23.17;;
47812;SDS011;34221;45.296;9.516;2023-12-20T01:02:42;29.30;;;22.75;;
47812;SDS011;34221;45.296;9.516;2023-12-20T01:02:57;28.85;;;22.40;;
47812;SDS011;34221;45.296;9.516;2023-12-20T01:03:12;28.70;;;22.05;;
47812;SDS011;34221;45.296;9.516;2023-12-20T01:03:28;28.25;;;21.92;;
47812;SDS011;34221;45.296;9.516;2023-12-20T01:03:43;27.55;;;22.27;;
47812;SDS011;34221;45.296;9.516;2023-12-20T01:03:58;28.45;;;23.35;;
47812;SDS011;34221;45.296;9.516;2023-12-20T01:04:13;29.08;;;22.88;;
47812;SDS011;34221;45.296;9.516;2023-12-20T01:05:03;30.33;;;23.33;;
47812;SDS011;34221;45.296;9.516;2023-12-20T01:05:18;30.58;;;23.63;;
47812;SDS011;34221;45.296;9.516;2023-12-20T01:05:33;30.55;;;23.75;;
47812;SDS011;34221;45.296;9.516;2023-12-20T01:05:48;29.25;;;23.10;;
47812;SDS011;34221;45.296;9.516;2023-12-20T01:06:03;28.23;;;22.83;;
47812;SDS011;34221;45.296;9.516;2023-12-20T01:06:19;28.83;;;22.95;;
47812;SDS011;34221;45.296;9.516;2023-12-20T01:06:34;30.35;;;22.88;;
47812;SDS011;34221;45.296;9.516;2023-12-20T01:06:49;30.50;;;23.67;;
47812;SDS011;34221;45.296;9.516;2023-12-20T01:07:04;29.38;;;24.35;;
47812;SDS011;34221;45.296;9.516;2023-12-20T01:07:19;28.45;;;23.73;;
47812;SDS011;34221;45.296;9.516;2023-12-20T01:07:33;28.58;;;23.35;;
47812;SDS011;34221;45.296;9.516;2023-12-20T01:07:49;29.17;;;23.73;;
47812;SDS011;34221;45.296;9.516;2023-12-20T01:08:04;28.02;;;23.42;;
47812;SDS011;34221;45.296;9.516;2023-12-20T01:08:19;27.25;;;22.55;;
47812;SDS011;34221;45.296;9.516;2023-12-20T01:08:34;27.08;;;22.60;;
47812;SDS011;34221;45.296;9.516;2023-12-20T01:08:49;27.95;;;23.17;;
47812;SDS011;34221;45.296;9.516;2023-12-20T01:09:04;29.70;;;23.65;;
47812;SDS011;34221;45.296;9.516;2023-12-20T01:09:19;30.02;;;23.98;;
47812;SDS011;34221;45.296;9.516;2023-12-20T01:09:37;31.40;;;24.05;;
47812;SDS011;34221;45.296;9.516;2023-12-20T01:09:52;30.60;;;23.75;;
47812;SDS011;34221;45.296;9.516;2023-12-20T01:10:07;27.33;;;23.20;;
47812;SDS011;34221;45.296;9.516;2023-12-20T01:10:23;28.38;;;23.33;;
47812;SDS011;34221;45.296;9.516;2023-12-20T01:10:38;30.60;;;23.35;;
47812;SDS011;34221;45.296;9.516;2023-12-20T01:10:52;30.05;;;22.90;;
47812;SDS011;34221;45.296;9.516;2023-12-20T01:11:07;28.88;;;23.30;;
47812;SDS011;34221;45.296;9.516;2023-12-20T01:11:22;29.00;;;24.13;;
47812;SDS011;34221;45.296;9.516;2023-12-20T01:11:37;28.80;;;23.50;;
47812;SDS011;34221;45.296;9.516;2023-12-20T01:11:52;27.92;;;23.17;;
47812;SDS011;34221;45.296;9.516;2023-12-20T01:12:07;28.42;;;23.45;;
47812;SDS011;34221;45.296;9.516;2023-12-20T01:12:22;29.10;;;23.07;;
47812;SDS011;34221;45.296;9.516;2023-12-20T01:12:37;29.03;;;22.53;;
47812;SDS011;34221;45.296;9.516;2023-12-20T01:12:52;29.50;;;23.17;;
47812;SDS011;34221;45.296;9.516;2023-12-20T01:13:07;29.48;;;23.30;;
47812;SDS011;34221;45.296;9.516;2023-12-20T01:13:23;29.95;;;23.58;;
47812;SDS011;34221;45.296;9.516;2023-12-20T01:13:38;33.07;;;24.50;;
47812;SDS011;34221;45.296;9.516;2023-12-20T01:13:52;33.40;;;24.63;;
47812;SDS011;34221;45.296;9.516;2023-12-20T01:14:07;30.05;;;24.02;;
47812;SDS011;34221;45.296;9.516;2023-12-20T01:14:22;27.25;;;22.58;;
47812;SDS011;34221;45.296;9.516;2023-12-20T01:14:37;28.27;;;22.88;;
47812;SDS011;34221;45.296;9.516;2023-12-20T01:14:53;33.17;;;23.85;;
47812;SDS011;34221;45.296;9.516;2023-12-20T01:15:08;34.05;;;23.55;;
47812;SDS011;34221;45.296;9.516;2023-12-20T01:15:24;31.40;;;22.90;;
47812;SDS011;34221;45.296;9.516;2023-12-20T01:15:38;30.50;;;23.38;;
47812;SDS011;34221;45.296;9.516;2023-12-20T01:15:53;28.40;;;23.27;;
47812;SDS011;34221;45.296;9.516;2023-12-20T01:16:10;28.17;;;23.05;;
47812;SDS011;34221;45.296;9.516;2023-12-20T01:16:25;31.10;;;24.38;;
47812;SDS011;34221;45.296;9.516;2023-12-20T01:16:40;32.05;;;24.75;;
47812;SDS011;34221;45.296;9.516;2023-12-20T01:16:55;29.83;;;23.58;;
47812;SDS011;34221;45.296;9.516;2023-12-20T01:17:10;30.42;;;23.17;;
47812;SDS011;34221;45.296;9.516;2023-12-20T01:17:26;32.15;;;24.77;;
47812;SDS011;34221;45.296;9.516;2023-12-20T01:17:41;30.73;;;24.60;;
47812;SDS011;34221;45.296;9.516;2023-12-20T01:17:56;30.88;;;23.75;;
47812;SDS011;34221;45.296;9.516;2023-12-20T01:18:13;29.70;;;22.90;;
47812;SDS011;34221;45.296;9.516;2023-12-20T01:18:28;28.33;;;22.80;;
47812;SDS011;34221;45.296;9.516;2023-12-20T01:18:44;33.47;;;25.33;;
47812;SDS011;34221;45.296;9.516;2023-12-20T01:18:59;34.47;;;25.88;;
47812;SDS011;34221;45.296;9.516;2023-12-20T01:19:14;32.63;;;26.33;;
47812;SDS011;34221;45.296;9.516;2023-12-20T01:19:29;33.63;;;27.17;;
47812;SDS011;34221;45.296;9.516;2023-12-20T01:19:44;34.15;;;26.52;;
47812;SDS011;34221;45.296;9.516;2023-12-20T01:19:59;34.33;;;26.42;;
47812;SDS011;34221;45.296;9.516;2023-12-20T01:20:13;33.42;;;26.38;;
47812;SDS011;34221;45.296;9.516;2023-12-20T01:20:28;32.55;;;26.42;;
47812;SDS011;34221;45.296;9.516;2023-12-20T01:20:43;31.58;;;25.67;;
47812;SDS011;34221;45.296;9.516;2023-12-20T01:21:02;33.13;;;25.42;;
47812;SDS011;34221;45.296;9.516;2023-12-20T01:21:17;34.58;;;27.02;;
47812;SDS011;34221;45.296;9.516;2023-12-20T01:21:32;35.00;;;27.23;;
47812;SDS011;34221;45.296;9.516;2023-12-20T01:21:47;35.25;;;27.33;;
47812;SDS011;34221;45.296;9.516;2023-12-20T01:22:02;34.90;;;26.70;;
47812;SDS011;34221;45.296;9.516;2023-12-20T01:22:17;35.08;;;27.02;;
47812;SDS011;34221;45.296;9.516;2023-12-20T01:22:33;35.72;;;27.55;;
47812;SDS011;34221;45.296;9.516;2023-12-20T01:22:49;35.70;;;26.42;;
47812;SDS011;34221;45.296;9.516;2023-12-20T01:23:04;35.67;;;27.20;;
47812;SDS011;34221;45.296;9.516;2023-12-20T01:23:19;35.42;;;27.25;;
47812;SDS011;34221;45.296;9.516;2023-12-20T01:23:34;34.08;;;26.90;;
47812;SDS011;34221;45.296;9.516;2023-12-20T01:23:49;35.15;;;27.02;;
47812;SDS011;34221;45.296;9.516;2023-12-20T01:24:04;34.90;;;26.70;;
47812;SDS011;34221;45.296;9.516;2023-12-20T01:24:19;33.42;;;26.38;;
47812;SDS011;34221;45.296;9.516;2023-12-20T01:24:34;33.08;;;26.08;;
47812;SDS011;34221;45.296;9.516;2023-12-20T01:24:49;31.45;;;25.27;;
47812;SDS011;34221;45.296;9.516;2023-12-20T01:25:04;30.95;;;24.85;;
47812;SDS011;34221;45.296;9.516;2023-12-20T01:25:19;30.20;;;25.23;;
47812;SDS011;34221;45.296;9.516;2023-12-20T01:25:34;29.63;;;24.10;;
47812;SDS011;34221;45.296;9.516;2023-12-20T01:25:49;31.75;;;24.20;;
47812;SDS011;34221;45.296;9.516;2023-12-20T01:26:04;33.20;;;24.55;;
47812;SDS011;34221;45.296;9.516;2023-12-20T01:26:19;30.98;;;23.73;;
47812;SDS011;34221;45.296;9.516;2023-12-20T01:26:34;30.03;;;24.50;;
47812;SDS011;34221;45.296;9.516;2023-12-20T01:26:49;29.53;;;24.03;;
47812;SDS011;34221;45.296;9.516;2023-12-20T01:27:04;29.30;;;23.70;;
47812;SDS011;34221;45.296;9.516;2023-12-20T01:27:19;30.83;;;24.77;;
47812;SDS011;34221;45.296;9.516;2023-12-20T01:27:34;32.47;;;25.70;;
47812;SDS011;34221;45.296;9.516;2023-12-20T01:27:49;32.53;;;25.40;;
47812;SDS011;34221;45.296;9.516;2023-12-20T01:28:04;34.50;;;26.35;;
47812;SDS011;34221;45.296;9.516;2023-12-20T01:28:19;34.33;;;27.05;;
47812;SDS011;34221;45.296;9.516;2023-12-20T01:28:35;32.22;;;25.85;;
47812;SDS011;34221;45.296;9.516;2023-12-20T01:28:49;31.90;;;25.33;;
47812;SDS011;34221;45.296;9.516;2023-12-20T01:29:04;34.03;;;25.25;;